createdAt,value
2019-04-14T00:00:49.487Z,2.00
2019-04-14T00:03:28.235Z,2.00
2019-04-14T00:06:00.731Z,2.00
2019-04-14T00:08:30.588Z,2.10
2019-04-14T00:11:01.699Z,2.00
2019-04-14T00:13:32.724Z,2.00
2019-04-14T00:16:03.143Z,2.00
2019-04-14T00:18:33.651Z,2.00
2019-04-14T00:21:02.948Z,2.00
2019-04-14T00:23:32.755Z,1.90
2019-04-14T00:26:27.133Z,1.90
2019-04-14T00:28:57.782Z,1.90
2019-04-14T00:31:28.401Z,1.90
2019-04-14T00:34:00.921Z,1.90
2019-04-14T00:36:37.562Z,1.80
2019-04-14T00:39:18.307Z,1.80
2019-04-14T00:41:58.390Z,1.80
2019-04-14T00:44:47.276Z,1.70
2019-04-14T00:47:22.951Z,1.70
2019-04-14T00:49:53.011Z,1.70
2019-04-14T00:52:23.402Z,1.70
2019-04-14T00:54:52.644Z,1.70
2019-04-14T00:57:22.349Z,1.70
2019-04-14T00:59:53.000Z,1.70
2019-04-14T01:02:23.227Z,1.70
2019-04-14T01:04:53.427Z,1.70
2019-04-14T01:07:24.030Z,1.70
2019-04-14T01:09:53.365Z,1.70
2019-04-14T01:12:23.440Z,1.70
2019-04-14T01:14:53.886Z,1.70
2019-04-14T01:17:24.440Z,1.80
2019-04-14T01:19:54.800Z,1.80
2019-04-14T01:22:24.922Z,1.70
2019-04-14T01:24:53.980Z,1.70
2019-04-14T01:27:23.456Z,1.70
2019-04-14T01:29:53.775Z,1.70
2019-04-14T01:32:24.076Z,1.70
2019-04-14T01:34:54.353Z,1.70
2019-04-14T01:37:24.763Z,1.70
2019-04-14T01:39:54.626Z,1.60
2019-04-14T01:42:24.571Z,1.60
2019-04-14T01:44:54.635Z,1.60
2019-04-14T01:47:24.676Z,1.50
2019-04-14T01:49:53.809Z,1.50
2019-04-14T01:52:36.241Z,1.60
2019-04-14T01:55:17.779Z,1.50
2019-04-14T01:57:52.987Z,1.50
2019-04-14T02:00:46.781Z,1.50
2019-04-14T02:03:17.079Z,1.50
2019-04-14T02:05:47.226Z,1.50
2019-04-14T02:08:17.756Z,1.50
2019-04-14T02:10:47.823Z,1.50
2019-04-14T02:13:18.193Z,1.50
2019-04-14T02:15:48.520Z,1.50
2019-04-14T02:18:18.591Z,1.50
2019-04-14T02:20:49.052Z,1.40
2019-04-14T02:23:19.157Z,1.40
2019-04-14T02:25:49.386Z,1.40
2019-04-14T02:28:18.404Z,1.50
2019-04-14T02:30:57.241Z,1.60
2019-04-14T02:33:44.278Z,1.50
2019-04-14T02:36:27.519Z,1.40
2019-04-14T02:38:49.228Z,1.50
2019-04-14T02:41:18.360Z,1.50
2019-04-14T02:43:58.069Z,1.50
2019-04-14T02:48:52.239Z,1.40
2019-04-14T02:51:20.723Z,1.40
2019-04-14T02:53:59.285Z,1.40
2019-04-14T02:56:25.436Z,1.40
2019-04-14T03:01:40.207Z,1.40
2019-04-14T03:03:54.382Z,1.50
2019-04-14T03:06:29.146Z,1.40
2019-04-14T03:09:04.661Z,1.50
2019-04-14T03:16:53.244Z,1.40
2019-04-14T03:19:25.084Z,1.50
2019-04-14T03:22:29.023Z,1.40
2019-04-14T03:25:05.767Z,1.50
2019-04-14T03:31:08.564Z,1.40
2019-04-14T03:33:49.000Z,1.40
2019-04-14T03:36:06.110Z,1.50
2019-04-14T03:38:20.570Z,1.40
2019-04-14T03:43:18.378Z,1.50
2019-04-14T03:45:53.880Z,1.50
2019-04-14T03:50:55.610Z,1.50
2019-04-14T03:53:21.447Z,1.50
2019-04-14T03:56:05.802Z,1.50
2019-04-14T03:58:31.528Z,1.50
2019-04-14T04:01:01.787Z,1.40
2019-04-14T04:03:32.405Z,1.40
2019-04-14T04:06:01.401Z,1.40
2019-04-14T04:08:31.267Z,1.40
2019-04-14T04:11:00.465Z,1.40
2019-04-14T04:13:30.234Z,1.40
2019-04-14T04:16:13.795Z,1.40
2019-04-14T04:18:52.676Z,1.40
2019-04-14T04:21:31.704Z,1.40
2019-04-14T04:24:08.494Z,1.40
2019-04-14T04:27:06.766Z,1.40
2019-04-14T04:29:48.503Z,1.40
2019-04-14T04:32:34.054Z,1.40
2019-04-14T04:35:26.011Z,1.40
2019-04-14T04:38:08.022Z,1.40
2019-04-14T04:40:37.602Z,1.30
2019-04-14T04:43:07.920Z,1.40
2019-04-14T04:45:37.198Z,1.40
2019-04-14T04:48:06.682Z,1.30
2019-04-14T04:50:36.845Z,1.30
2019-04-14T04:53:06.952Z,1.30
2019-04-14T04:55:37.358Z,1.30
2019-04-14T04:58:07.809Z,1.30
2019-04-14T05:00:37.467Z,1.30
2019-04-14T05:03:06.369Z,1.30
2019-04-14T05:06:13.251Z,1.30
2019-04-14T05:08:50.172Z,1.30
2019-04-14T05:11:29.433Z,1.30
2019-04-14T05:14:00.112Z,1.30
2019-04-14T05:16:30.061Z,1.30
2019-04-14T05:19:12.033Z,1.40
2019-04-14T05:21:30.482Z,1.40
2019-04-14T05:24:00.566Z,1.40
2019-04-14T05:26:30.859Z,1.40
2019-04-14T05:29:01.327Z,1.30
2019-04-14T05:31:30.897Z,1.40
2019-04-14T05:34:02.171Z,1.40
2019-04-14T05:36:32.479Z,1.40
2019-04-14T05:39:02.513Z,1.40
2019-04-14T05:41:33.033Z,1.40
2019-04-14T05:44:03.590Z,1.50
2019-04-14T05:46:33.921Z,1.50
2019-04-14T05:49:04.389Z,1.50
2019-04-14T05:51:33.480Z,1.50
2019-04-14T05:54:03.419Z,1.50
2019-04-14T05:56:35.076Z,1.50
2019-04-14T05:59:04.425Z,1.40
2019-04-14T06:01:33.793Z,1.40
2019-04-14T06:04:04.463Z,1.50
2019-04-14T06:06:33.870Z,1.50
2019-04-14T06:09:04.244Z,1.50
2019-04-14T06:11:33.686Z,1.50
2019-04-14T06:14:03.270Z,1.50
2019-04-14T06:16:32.335Z,1.50
2019-04-14T06:19:01.771Z,1.50
2019-04-14T06:21:31.278Z,1.60
2019-04-14T06:24:00.575Z,1.60
2019-04-14T06:26:30.085Z,1.60
2019-04-14T06:28:59.583Z,1.60
2019-04-14T06:31:54.494Z,1.60
2019-04-14T06:34:39.267Z,1.60
2019-04-14T06:37:14.144Z,1.60
2019-04-14T06:39:46.411Z,1.60
2019-04-14T06:42:15.493Z,1.60
2019-04-14T06:44:44.864Z,1.60
2019-04-14T06:47:14.082Z,1.60
2019-04-14T06:49:48.890Z,1.60
2019-04-14T06:52:14.359Z,1.60
2019-04-14T06:54:43.673Z,1.60
2019-04-14T06:57:12.762Z,1.60
2019-04-14T06:59:41.574Z,1.60
2019-04-14T07:02:10.635Z,1.60
2019-04-14T07:04:39.931Z,1.70
2019-04-14T07:07:08.830Z,1.60
2019-04-14T07:09:38.371Z,1.80
2019-04-14T07:12:07.575Z,1.70
2019-04-14T07:14:36.653Z,1.60
2019-04-14T07:17:05.700Z,1.50
2019-04-14T07:19:35.003Z,1.60
2019-04-14T07:22:04.390Z,1.60
2019-04-14T07:24:33.452Z,1.60
2019-04-14T07:27:02.538Z,1.50
2019-04-14T07:29:38.891Z,1.60
2019-04-14T07:32:25.635Z,1.60
2019-04-14T07:35:16.767Z,1.70
2019-04-14T07:38:08.374Z,1.90
2019-04-14T07:40:55.816Z,1.90
2019-04-14T07:43:43.563Z,2.00
2019-04-14T07:46:34.618Z,2.10
2019-04-14T07:49:16.378Z,2.10
2019-04-14T07:52:04.775Z,2.20
2019-04-14T07:54:41.432Z,2.30
2019-04-14T07:57:36.451Z,2.30
2019-04-14T08:00:12.478Z,2.20
2019-04-14T08:02:45.712Z,2.20
2019-04-14T08:05:19.828Z,2.20
2019-04-14T08:07:50.458Z,2.10
2019-04-14T08:10:19.683Z,2.00
2019-04-14T08:12:49.263Z,2.20
2019-04-14T08:15:18.331Z,2.30
2019-04-14T08:17:47.574Z,2.40
2019-04-14T08:20:26.979Z,2.70
2019-04-14T08:22:47.686Z,2.70
2019-04-14T08:25:16.522Z,2.70
2019-04-14T08:27:45.570Z,2.90
2019-04-14T08:30:14.905Z,3.30
2019-04-14T08:32:44.034Z,3.50
2019-04-14T08:35:13.246Z,3.70
2019-04-14T08:37:42.839Z,3.80
2019-04-14T08:40:12.470Z,3.60
2019-04-14T08:43:06.307Z,3.60
2019-04-14T08:45:42.670Z,4.00
2019-04-14T08:48:23.236Z,3.80
2019-04-14T08:50:59.493Z,3.70
2019-04-14T08:53:39.415Z,4.00
2019-04-14T08:56:27.231Z,3.70
2019-04-14T08:59:11.906Z,3.50
2019-04-14T09:01:54.650Z,3.80
2019-04-14T09:04:37.852Z,3.70
2019-04-14T09:07:23.739Z,3.90
2019-04-14T09:09:59.755Z,3.40
2019-04-14T09:12:32.585Z,3.00
2019-04-14T09:15:01.890Z,3.30
2019-04-14T09:17:31.402Z,3.50
2019-04-14T09:20:00.455Z,3.50
2019-04-14T09:22:29.295Z,3.70
2019-04-14T09:24:58.499Z,3.90
2019-04-14T09:27:28.382Z,3.70
2019-04-14T09:29:57.810Z,3.90
2019-04-14T09:32:29.107Z,3.90
2019-04-14T09:34:58.535Z,3.60
2019-04-14T09:37:28.123Z,3.40
2019-04-14T09:39:57.790Z,3.80
2019-04-14T09:42:27.327Z,4.00
2019-04-14T09:44:56.876Z,3.80
2019-04-14T09:47:26.575Z,3.90
2019-04-14T09:49:55.778Z,4.00
2019-04-14T09:52:25.250Z,4.20
2019-04-14T09:54:54.500Z,3.90
2019-04-14T09:57:23.899Z,3.80
2019-04-14T09:59:53.419Z,3.40
2019-04-14T10:02:22.819Z,3.60
2019-04-14T10:04:52.396Z,3.50
2019-04-14T10:07:21.904Z,3.50
2019-04-14T10:09:51.726Z,3.80
2019-04-14T10:12:21.266Z,3.60
2019-04-14T10:14:50.948Z,3.60
2019-04-14T10:17:20.145Z,3.90
2019-04-14T10:19:49.454Z,3.90
2019-04-14T10:22:18.798Z,4.00
2019-04-14T10:24:47.850Z,3.90
2019-04-14T10:27:16.682Z,3.70
2019-04-14T10:29:45.819Z,3.50
2019-04-14T10:32:15.363Z,3.40
2019-04-14T10:34:44.783Z,3.50
2019-04-14T10:37:13.994Z,3.60
2019-04-14T10:39:43.314Z,3.70
2019-04-14T10:42:12.745Z,3.80
2019-04-14T10:44:41.932Z,3.60
2019-04-14T10:47:11.395Z,3.40
2019-04-14T10:49:40.935Z,3.80
2019-04-14T10:52:10.343Z,3.90
2019-04-14T10:54:40.002Z,4.00
2019-04-14T10:57:09.704Z,3.90
2019-04-14T10:59:39.364Z,3.80
2019-04-14T11:02:08.466Z,3.90
2019-04-14T11:04:37.770Z,3.90
2019-04-14T11:07:14.073Z,3.90
2019-04-14T11:09:43.560Z,4.00
2019-04-14T11:12:12.750Z,3.90
2019-04-14T11:14:42.677Z,4.00
2019-04-14T11:17:12.156Z,4.10
2019-04-14T11:19:41.654Z,4.40
2019-04-14T11:22:11.050Z,4.50
2019-04-14T11:24:40.106Z,4.40
2019-04-14T11:27:09.189Z,4.50
2019-04-14T11:29:38.254Z,4.30
2019-04-14T11:32:22.763Z,4.30
2019-04-14T11:35:06.411Z,4.50
2019-04-14T11:38:09.609Z,4.70
2019-04-14T11:40:42.482Z,4.80
2019-04-14T11:43:11.450Z,4.80
2019-04-14T11:45:40.358Z,4.80
2019-04-14T11:48:09.836Z,4.80
2019-04-14T11:50:38.902Z,5.10
2019-04-14T11:53:08.618Z,5.40
2019-04-14T11:55:37.574Z,5.30
2019-04-14T11:58:07.038Z,5.40
2019-04-14T12:00:53.891Z,5.30
2019-04-14T12:03:48.318Z,5.50
2019-04-14T12:06:36.988Z,5.90
2019-04-14T12:09:32.534Z,6.60
2019-04-14T12:12:04.099Z,6.50
2019-04-14T12:14:33.258Z,6.90
2019-04-14T12:17:02.374Z,7.00
2019-04-14T12:19:31.438Z,7.10
2019-04-14T12:22:08.043Z,6.80
2019-04-14T12:24:31.042Z,6.60
2019-04-14T12:27:00.566Z,6.60
2019-04-14T12:29:30.526Z,6.60
2019-04-14T12:32:00.261Z,6.30
2019-04-14T12:34:29.723Z,6.70
2019-04-14T12:36:58.555Z,6.90
2019-04-14T12:39:27.398Z,7.10
2019-04-14T12:42:06.628Z,7.10
2019-04-14T12:44:54.615Z,7.30
2019-04-14T12:47:39.756Z,7.10
2019-04-14T12:50:11.939Z,6.80
2019-04-14T12:52:41.290Z,6.70
2019-04-14T12:55:10.421Z,6.70
2019-04-14T12:57:47.575Z,6.80
2019-04-14T13:00:39.778Z,6.80
2019-04-14T13:03:09.661Z,6.90
2019-04-14T13:05:38.913Z,6.90
2019-04-14T13:08:08.233Z,7.20
2019-04-14T13:10:37.682Z,7.10
2019-04-14T13:13:06.926Z,7.20
2019-04-14T13:15:36.435Z,7.20
2019-04-14T13:18:05.927Z,7.20
2019-04-14T13:20:35.142Z,7.30
2019-04-14T13:23:04.377Z,7.20
2019-04-14T13:25:33.614Z,7.50
2019-04-14T13:28:03.590Z,7.70
2019-04-14T13:30:35.895Z,7.70
2019-04-14T13:33:05.690Z,7.80
2019-04-14T13:35:35.170Z,7.90
2019-04-14T13:38:04.547Z,7.60
2019-04-14T13:40:33.746Z,7.50
2019-04-14T13:43:04.323Z,7.70
2019-04-14T13:45:34.041Z,7.60
2019-04-14T13:48:02.903Z,7.50
2019-04-14T13:50:32.098Z,7.40
2019-04-14T13:53:01.313Z,7.50
2019-04-14T13:55:30.870Z,7.50
2019-04-14T13:58:00.306Z,7.10
2019-04-14T14:00:29.788Z,7.10
2019-04-14T14:02:58.682Z,6.80
2019-04-14T14:05:28.104Z,6.70
2019-04-14T14:07:57.238Z,6.70
2019-04-14T14:10:26.379Z,6.80
2019-04-14T14:13:05.407Z,7.00
2019-04-14T14:15:52.800Z,7.10
2019-04-14T14:18:39.296Z,7.10
2019-04-14T14:21:27.419Z,7.40
2019-04-14T14:24:14.691Z,7.20
2019-04-14T14:26:44.515Z,7.10
2019-04-14T14:29:13.823Z,6.90
2019-04-14T14:31:42.729Z,7.10
2019-04-14T14:34:11.577Z,7.20
2019-04-14T14:36:40.452Z,7.10
2019-04-14T14:39:10.380Z,7.10
2019-04-14T14:41:39.490Z,7.10
2019-04-14T14:44:08.430Z,7.10
2019-04-14T14:46:56.293Z,7.20
2019-04-14T14:49:47.588Z,7.50
2019-04-14T14:52:18.294Z,7.70
2019-04-14T14:54:48.145Z,7.60
2019-04-14T14:57:17.034Z,7.90
2019-04-14T14:59:46.174Z,8.20
2019-04-14T15:02:15.082Z,8.30
2019-04-14T15:04:44.161Z,8.10
2019-04-14T15:07:13.663Z,7.90
2019-04-14T15:09:43.160Z,7.70
2019-04-14T15:12:13.171Z,7.90
2019-04-14T15:14:42.578Z,8.00
2019-04-14T15:17:12.863Z,8.50
2019-04-14T15:19:42.339Z,8.80
2019-04-14T15:22:12.043Z,9.00
2019-04-14T15:24:41.700Z,8.90
2019-04-14T15:27:10.916Z,8.70
2019-04-14T15:29:40.217Z,8.50
2019-04-14T15:32:11.178Z,8.30
2019-04-14T15:34:40.125Z,8.20
2019-04-14T15:37:09.064Z,8.20
2019-04-14T15:39:38.193Z,8.00
2019-04-14T15:42:07.411Z,8.00
2019-04-14T15:44:37.305Z,8.00
2019-04-14T15:47:06.447Z,8.00
2019-04-14T15:49:35.394Z,7.90
2019-04-14T15:52:05.140Z,7.80
2019-04-14T15:54:34.827Z,7.80
2019-04-14T15:57:32.129Z,7.90
2019-04-14T16:00:18.917Z,8.00
2019-04-14T16:02:57.991Z,8.00
2019-04-14T16:05:42.955Z,8.00
2019-04-14T16:08:19.407Z,7.90
2019-04-14T16:11:02.854Z,8.00
2019-04-14T16:13:42.803Z,7.90
2019-04-14T16:16:22.138Z,8.00
2019-04-14T16:18:58.026Z,8.10
2019-04-14T16:21:27.271Z,8.10
2019-04-14T16:23:56.141Z,8.20
2019-04-14T16:26:31.100Z,8.20
2019-04-14T16:29:18.280Z,8.20
2019-04-14T16:32:08.793Z,8.30
2019-04-14T16:34:57.546Z,7.90
2019-04-14T16:37:26.945Z,7.90
2019-04-14T16:39:56.196Z,7.70
2019-04-14T16:42:25.497Z,7.60
2019-04-14T16:44:54.646Z,7.60
2019-04-14T16:47:23.519Z,7.40
2019-04-14T16:49:52.416Z,7.30
2019-04-14T16:52:43.310Z,7.40
2019-04-14T16:55:37.109Z,7.30
2019-04-14T16:58:25.319Z,7.30
2019-04-14T17:00:59.756Z,7.30
2019-04-14T17:03:29.236Z,7.20
2019-04-14T17:05:58.835Z,7.30
2019-04-14T17:08:28.051Z,7.20
2019-04-14T17:10:57.328Z,7.10
2019-04-14T17:13:28.514Z,7.20
2019-04-14T17:16:22.059Z,7.10
2019-04-14T17:18:55.274Z,7.10
2019-04-14T17:21:52.367Z,7.00
2019-04-14T17:24:50.012Z,6.90
2019-04-14T17:27:24.286Z,6.90
2019-04-14T17:30:07.303Z,6.80
2019-04-14T17:32:58.252Z,6.80
2019-04-14T17:35:38.778Z,6.80
2019-04-14T17:38:12.022Z,6.80
2019-04-14T17:40:47.111Z,6.70
2019-04-14T17:43:26.640Z,6.70
2019-04-14T17:46:03.624Z,6.60
2019-04-14T17:48:46.023Z,6.60
2019-04-14T17:51:36.967Z,6.50
2019-04-14T17:54:30.738Z,6.40
2019-04-14T17:57:19.314Z,6.40
2019-04-14T18:00:00.436Z,6.40
2019-04-14T18:02:36.650Z,6.30
2019-04-14T18:05:11.702Z,6.30
2019-04-14T18:07:51.083Z,6.20
2019-04-14T18:10:45.691Z,6.20
2019-04-14T18:13:32.854Z,6.20
2019-04-14T18:16:05.510Z,6.10
2019-04-14T18:18:52.785Z,6.10
2019-04-14T18:21:21.967Z,6.10
2019-04-14T18:23:51.790Z,6.00
2019-04-14T18:26:20.953Z,6.00
2019-04-14T18:29:07.567Z,6.00
2019-04-14T18:31:58.599Z,5.90
2019-04-14T18:34:35.288Z,5.90
2019-04-14T18:37:26.923Z,5.80
2019-04-14T18:40:24.264Z,5.80
2019-04-14T18:43:10.923Z,5.80
2019-04-14T18:45:43.964Z,5.80
2019-04-14T18:48:31.401Z,5.70
2019-04-14T18:51:25.890Z,5.60
2019-04-14T18:53:57.948Z,5.60
2019-04-14T18:56:45.114Z,5.60
2019-04-14T18:59:32.508Z,5.50
2019-04-14T19:02:01.368Z,5.50
2019-04-14T19:04:30.791Z,5.50
2019-04-14T19:07:00.194Z,5.40
2019-04-14T19:09:29.729Z,5.40
2019-04-14T19:12:23.387Z,5.40
2019-04-14T19:14:58.476Z,5.40
2019-04-14T19:17:46.961Z,5.40
2019-04-14T19:20:17.183Z,5.40
2019-04-14T19:22:46.094Z,5.40
2019-04-14T19:25:15.081Z,5.40
2019-04-14T19:27:44.277Z,5.40
2019-04-14T19:30:13.367Z,5.40
2019-04-14T19:32:43.070Z,5.30
2019-04-14T19:35:12.122Z,5.30
2019-04-14T19:37:41.466Z,5.30
2019-04-14T19:40:11.283Z,5.30
2019-04-14T19:42:40.098Z,5.30
2019-04-14T19:45:09.982Z,5.30
2019-04-14T19:47:39.197Z,5.20
2019-04-14T19:50:08.485Z,5.20
2019-04-14T19:52:37.325Z,5.10
2019-04-14T19:55:06.679Z,5.10
2019-04-14T19:57:35.902Z,5.00
2019-04-14T20:00:05.826Z,5.00
2019-04-14T20:02:35.210Z,4.90
2019-04-14T20:05:04.571Z,4.80
2019-04-14T20:07:34.002Z,4.70
2019-04-14T20:10:03.618Z,4.70
2019-04-14T20:12:33.173Z,4.60
2019-04-14T20:15:02.143Z,4.60
2019-04-14T20:17:43.101Z,4.50
2019-04-14T20:20:34.338Z,4.40
2019-04-14T20:23:24.547Z,4.30
2019-04-14T20:26:11.915Z,4.30
2019-04-14T20:28:51.249Z,4.30
2019-04-14T20:31:27.203Z,4.30
2019-04-14T20:33:56.137Z,4.30
2019-04-14T20:36:25.230Z,4.20
2019-04-14T20:38:54.389Z,4.20
2019-04-14T20:41:23.731Z,4.10
2019-04-14T20:43:52.574Z,4.00
2019-04-14T20:46:23.427Z,3.90
2019-04-14T20:48:52.538Z,3.80
2019-04-14T20:51:21.793Z,3.70
2019-04-14T20:53:50.700Z,3.70
2019-04-14T20:56:19.923Z,3.60
2019-04-14T20:58:49.795Z,3.60
2019-04-14T21:01:19.904Z,3.50
2019-04-14T21:04:01.620Z,3.40
2019-04-14T21:06:41.992Z,3.30
2019-04-14T21:09:20.917Z,3.20
2019-04-14T21:11:59.327Z,3.10
2019-04-14T21:14:50.916Z,3.10
2019-04-14T21:17:25.580Z,3.00
2019-04-14T21:20:03.925Z,2.90
2019-04-14T21:22:39.395Z,2.80
2019-04-14T21:25:27.139Z,2.80
2019-04-14T21:28:07.167Z,2.90
2019-04-14T21:30:58.546Z,2.90
2019-04-14T21:33:39.619Z,2.80
2019-04-14T21:36:16.290Z,2.70
2019-04-14T21:39:07.815Z,2.60
2019-04-14T21:41:37.283Z,2.50
2019-04-14T21:44:06.104Z,2.50
2019-04-14T21:46:35.268Z,2.60
2019-04-14T21:49:05.087Z,2.60
2019-04-14T21:51:59.424Z,2.60
2019-04-14T21:54:28.642Z,2.70
2019-04-14T21:57:20.108Z,2.70
2019-04-14T22:00:23.989Z,2.80
2019-04-14T22:03:11.467Z,2.80
2019-04-14T22:05:52.676Z,2.70
2019-04-14T22:08:25.756Z,2.60
2019-04-14T22:10:57.393Z,2.60
2019-04-14T22:13:26.695Z,2.40
2019-04-14T22:15:55.878Z,2.20
2019-04-14T22:18:25.370Z,2.10
2019-04-14T22:20:54.276Z,1.90
2019-04-14T22:23:23.539Z,1.80
2019-04-14T22:25:52.388Z,1.70
2019-04-14T22:28:21.465Z,1.50
2019-04-14T22:30:50.366Z,1.50
2019-04-14T22:33:19.964Z,1.50
2019-04-14T22:35:48.862Z,1.30
2019-04-14T22:38:17.989Z,1.40
2019-04-14T22:40:46.830Z,1.30
2019-04-14T22:43:16.043Z,1.30
2019-04-14T22:45:45.652Z,1.30
2019-04-14T22:48:14.752Z,1.20
2019-04-14T22:50:43.894Z,1.20
2019-04-14T22:53:12.966Z,1.20
2019-04-14T22:55:42.230Z,1.20
2019-04-14T22:58:12.595Z,1.20
2019-04-14T23:00:51.960Z,1.20
2019-04-14T23:03:40.558Z,1.20
2019-04-14T23:06:24.503Z,1.20
2019-04-14T23:09:00.862Z,1.20
2019-04-14T23:11:51.713Z,1.20
2019-04-14T23:14:52.612Z,1.30
2019-04-14T23:17:28.885Z,1.30
2019-04-14T23:20:02.477Z,1.30
2019-04-14T23:22:53.459Z,1.20
2019-04-14T23:25:22.604Z,1.10
2019-04-14T23:27:51.676Z,1.10
2019-04-14T23:30:20.570Z,1.20
2019-04-14T23:32:50.074Z,1.30
2019-04-14T23:35:19.512Z,1.40
2019-04-14T23:37:48.903Z,1.50
2019-04-14T23:40:17.792Z,1.50
2019-04-14T23:42:46.887Z,1.40
2019-04-14T23:45:16.172Z,1.40
2019-04-14T23:47:45.089Z,1.30
2019-04-14T23:50:14.074Z,1.20
2019-04-14T23:52:43.579Z,1.10
2019-04-14T23:55:12.912Z,1.10
2019-04-14T23:57:42.079Z,1.10
